66001 UUMU-UUMB
Flight info
| Callsign | 66001 |
|---|---|
| Flight time | N/A |
| Altitude | 10000 |
| Route | UUMU NIGLI DEZAP EDASO ORSIF PREKI AKKUS UUMB |
| Aircraft | T134/M-SDE3GHIJ2J3J5M1RVWXYZ/LB2D1 |
Departure
| Time | 2026-04-12 12:47 |
|---|---|
| Airport | Chkalovskiy Air Base (UUMU) |
Arrival
| Time | N/A |
|---|---|
| Airport | UUMB |
| Time | Latitude | Longitude | Altitude | Speed | Heading |
|---|---|---|---|---|---|
| 2026-04-12 12:38 | 55.88237 | 38.03941 | 508 ft | 0 kts | 100° |
| 2026-04-12 12:42 | 55.88235 | 38.03961 | 508 ft | 4 kts | 93° |
| 2026-04-12 12:42 | 55.88290 | 38.04029 | 508 ft | 19 kts | 333° |
| 2026-04-12 12:43 | 55.88425 | 38.04062 | 508 ft | 21 kts | 20° |
| 2026-04-12 12:43 | 55.88576 | 38.04134 | 508 ft | 23 kts | 12° |
| 2026-04-12 12:43 | 55.88634 | 38.04161 | 508 ft | 0 kts | 17° |
| 2026-04-12 12:43 | 55.88644 | 38.04166 | 508 ft | 2 kts | 18° |
| 2026-04-12 12:44 | 55.88667 | 38.04181 | 508 ft | 5 kts | 22° |
| 2026-04-12 12:44 | 55.88709 | 38.04217 | 508 ft | 8 kts | 28° |
| 2026-04-12 12:44 | 55.88731 | 38.04241 | 508 ft | 0 kts | 34° |
| 2026-04-12 12:44 | 55.88737 | 38.04246 | 508 ft | 4 kts | 20° |
| 2026-04-12 12:45 | 55.88765 | 38.04198 | 508 ft | 8 kts | 248° |
| 2026-04-12 12:45 | 55.88718 | 38.04116 | 508 ft | 12 kts | 139° |
| 2026-04-12 12:45 | 55.88708 | 38.04158 | 508 ft | 4 kts | 107° |
| 2026-04-12 12:45 | 55.88694 | 38.04195 | 508 ft | 4 kts | 131° |
| 2026-04-12 12:46 | 55.88498 | 38.04562 | 508 ft | 82 kts | 131° |
| 2026-04-12 12:46 | 55.87964 | 38.05656 | 507 ft | 143 kts | 131° |
| 2026-04-12 12:46 | 55.87216 | 38.07221 | 538 ft | 191 kts | 131° |
| 2026-04-12 12:46 | 55.86245 | 38.09174 | 591 ft | 238 kts | 138° |
| 2026-04-12 12:47 | 55.84784 | 38.10476 | 1451 ft | 247 kts | 167° |
| 2026-04-12 12:47 | 55.82966 | 38.10860 | 1849 ft | 279 kts | 171° |
| 2026-04-12 12:47 | 55.81493 | 38.11689 | 2255 ft | 300 kts | 154° |
| 2026-04-12 12:47 | 55.79568 | 38.13263 | 2866 ft | 318 kts | 160° |
| 2026-04-12 12:48 | 55.77526 | 38.14894 | 3481 ft | 333 kts | 153° |
| 2026-04-12 12:48 | 55.75381 | 38.16595 | 4033 ft | 335 kts | 158° |
| 2026-04-12 12:48 | 55.73313 | 38.18423 | 4548 ft | 326 kts | 148° |
| 2026-04-12 12:48 | 55.71411 | 38.20404 | 5011 ft | 318 kts | 158° |
| 2026-04-12 12:49 | 55.69350 | 38.21821 | 5422 ft | 314 kts | 154° |
| 2026-04-12 12:49 | 55.67430 | 38.23444 | 5788 ft | 299 kts | 160° |
| 2026-04-12 12:49 | 55.65583 | 38.24845 | 6162 ft | 279 kts | 153° |
| 2026-04-12 12:49 | 55.63887 | 38.26144 | 6507 ft | 261 kts | 158° |
| 2026-04-12 12:50 | 55.62262 | 38.27448 | 6780 ft | 247 kts | 156° |
| 2026-04-12 12:50 | 55.60724 | 38.28598 | 6987 ft | 236 kts | 156° |
| 2026-04-12 12:50 | 55.59231 | 38.29595 | 7134 ft | 227 kts | 172° |
| 2026-04-12 12:50 | 55.57702 | 38.29356 | 7239 ft | 218 kts | 201° |
| 2026-04-12 12:51 | 55.56410 | 38.28060 | 7309 ft | 212 kts | 223° |
| 2026-04-12 12:51 | 55.55474 | 38.26105 | 7355 ft | 207 kts | 231° |
| 2026-04-12 12:51 | 55.54584 | 38.24115 | 7382 ft | 205 kts | 234° |
| 2026-04-12 12:51 | 55.53715 | 38.22117 | 7408 ft | 212 kts | 231° |
| 2026-04-12 12:52 | 55.52809 | 38.19942 | 7516 ft | 231 kts | 234° |
| 2026-04-12 12:52 | 55.51823 | 38.17570 | 7720 ft | 248 kts | 234° |
| 2026-04-12 12:52 | 55.50783 | 38.15015 | 8003 ft | 261 kts | 233° |
| 2026-04-12 12:52 | 55.49696 | 38.12363 | 8339 ft | 272 kts | 234° |
| 2026-04-12 12:53 | 55.48581 | 38.09646 | 8664 ft | 283 kts | 234° |
| 2026-04-12 12:53 | 55.47402 | 38.06765 | 8896 ft | 297 kts | 234° |
| 2026-04-12 12:53 | 55.46171 | 38.03769 | 9178 ft | 308 kts | 234° |
| 2026-04-12 12:53 | 55.44894 | 38.00662 | 9495 ft | 316 kts | 233° |
| 2026-04-12 12:54 | 55.43583 | 37.97472 | 9839 ft | 325 kts | 233° |
| 2026-04-12 12:54 | 55.42242 | 37.94222 | 10211 ft | 334 kts | 233° |
| 2026-04-12 12:54 | 55.40871 | 37.90883 | 10606 ft | 341 kts | 236° |
| 2026-04-12 12:54 | 55.39842 | 37.87143 | 11014 ft | 347 kts | 249° |
| 2026-04-12 12:55 | 55.38854 | 37.83196 | 11443 ft | 351 kts | 243° |
| 2026-04-12 12:55 | 55.37893 | 37.79269 | 11874 ft | 355 kts | 247° |
| 2026-04-12 12:55 | 55.36861 | 37.75270 | 12319 ft | 357 kts | 245° |
| 2026-04-12 12:55 | 55.35899 | 37.71272 | 12821 ft | 362 kts | 246° |
| 2026-04-12 12:56 | 55.34862 | 37.67009 | 12473 ft | 391 kts | 246° |
| 2026-04-12 12:56 | 55.33771 | 37.62536 | 12116 ft | 403 kts | 246° |
| 2026-04-12 12:56 | 55.32689 | 37.58099 | 11354 ft | 385 kts | 246° |
| 2026-04-12 12:56 | 55.31665 | 37.53908 | 10535 ft | 371 kts | 246° |
| 2026-04-12 12:57 | 55.30649 | 37.49752 | 9437 ft | 365 kts | 246° |
| 2026-04-12 12:57 | 55.29661 | 37.45721 | 8639 ft | 352 kts | 246° |
| 2026-04-12 12:57 | 55.28728 | 37.41915 | 8135 ft | 334 kts | 246° |
| 2026-04-12 12:57 | 55.27834 | 37.38277 | 7899 ft | 311 kts | 246° |
| 2026-04-12 12:58 | 55.26998 | 37.34884 | 7681 ft | 292 kts | 245° |
| 2026-04-12 12:58 | 55.26214 | 37.31697 | 7435 ft | 279 kts | 246° |
| 2026-04-12 12:58 | 55.25620 | 37.28570 | 7160 ft | 268 kts | 259° |
| 2026-04-12 12:58 | 55.25384 | 37.25382 | 6866 ft | 259 kts | 266° |
| 2026-04-12 12:59 | 55.25374 | 37.22259 | 6557 ft | 252 kts | 270° |
| 2026-04-12 12:59 | 55.25442 | 37.19236 | 6236 ft | 246 kts | 273° |
| 2026-04-12 12:59 | 55.25569 | 37.16273 | 5907 ft | 241 kts | 274° |
| 2026-04-12 12:59 | 55.25712 | 37.13391 | 5572 ft | 237 kts | 275° |
| 2026-04-12 13:00 | 55.25866 | 37.10529 | 5232 ft | 234 kts | 275° |
| 2026-04-12 13:00 | 55.26018 | 37.07792 | 5069 ft | 222 kts | 275° |
| 2026-04-12 13:00 | 55.26167 | 37.05142 | 4873 ft | 214 kts | 275° |
| 2026-04-12 13:00 | 55.26311 | 37.02583 | 4653 ft | 207 kts | 275° |
| 2026-04-12 13:01 | 55.26452 | 37.00107 | 4410 ft | 202 kts | 275° |
| 2026-04-12 13:01 | 55.26590 | 36.97678 | 4150 ft | 198 kts | 275° |
| 2026-04-12 13:01 | 55.26773 | 36.95321 | 3892 ft | 194 kts | 274° |
| 2026-04-12 13:01 | 55.26837 | 36.92995 | 3785 ft | 194 kts | 274° |
| 2026-04-12 13:02 | 55.26950 | 36.90613 | 3684 ft | 195 kts | 274° |
| 2026-04-12 13:02 | 55.27050 | 36.88239 | 3590 ft | 196 kts | 274° |
| 2026-04-12 13:02 | 55.27158 | 36.85845 | 3504 ft | 197 kts | 274° |
| 2026-04-12 13:02 | 55.27267 | 36.83454 | 3421 ft | 197 kts | 274° |
| 2026-04-12 13:03 | 55.27377 | 36.81048 | 3340 ft | 198 kts | 274° |
| 2026-04-12 13:03 | 55.27486 | 36.78642 | 3264 ft | 198 kts | 274° |
| 2026-04-12 13:03 | 55.27594 | 36.76234 | 3187 ft | 198 kts | 274° |
| 2026-04-12 13:03 | 55.27727 | 36.73867 | 3137 ft | 196 kts | 281° |
| 2026-04-12 13:04 | 55.28249 | 36.71666 | 3078 ft | 195 kts | 308° |
| 2026-04-12 13:04 | 55.29210 | 36.69991 | 3022 ft | 198 kts | 316° |
| 2026-04-12 13:04 | 55.30220 | 36.68258 | 2991 ft | 204 kts | 315° |
| 2026-04-12 13:04 | 55.31243 | 36.66488 | 2996 ft | 214 kts | 315° |
| 2026-04-12 13:05 | 55.32341 | 36.64587 | 3075 ft | 231 kts | 315° |
| 2026-04-12 13:05 | 55.33519 | 36.62545 | 3220 ft | 246 kts | 315° |
| 2026-04-12 13:05 | 55.34822 | 36.60281 | 3412 ft | 276 kts | 315° |
| 2026-04-12 13:05 | 55.36238 | 36.57819 | 3667 ft | 300 kts | 315° |
| 2026-04-12 13:06 | 55.37769 | 36.55153 | 3991 ft | 318 kts | 315° |
| 2026-04-12 13:06 | 55.39363 | 36.52375 | 4208 ft | 328 kts | 315° |
| 2026-04-12 13:06 | 55.41011 | 36.49503 | 3996 ft | 340 kts | 315° |
| 2026-04-12 13:06 | 55.42715 | 36.46527 | 3642 ft | 344 kts | 315° |
| 2026-04-12 13:07 | 55.44406 | 36.43572 | 2743 ft | 343 kts | 315° |
| 2026-04-12 13:07 | 55.46041 | 36.40711 | 2054 ft | 327 kts | 315° |
| 2026-04-12 13:07 | 55.47670 | 36.38068 | 1845 ft | 300 kts | 323° |
| 2026-04-12 13:07 | 55.49426 | 36.36540 | 1897 ft | 271 kts | 345° |
| 2026-04-12 13:08 | 55.51215 | 36.36230 | 1954 ft | 246 kts | 6° |
| 2026-04-12 13:08 | 55.52837 | 36.36768 | 1929 ft | 228 kts | 11° |
| 2026-04-12 13:08 | 55.54313 | 36.37149 | 2055 ft | 200 kts | 358° |
| 2026-04-12 13:08 | 55.55547 | 36.36530 | 2336 ft | 181 kts | 326° |
| 2026-04-12 13:09 | 55.56422 | 36.34891 | 2523 ft | 186 kts | 295° |
| 2026-04-12 13:09 | 55.56726 | 36.32718 | 2784 ft | 186 kts | 266° |
| 2026-04-12 13:09 | 55.56392 | 36.30550 | 3055 ft | 186 kts | 237° |
| 2026-04-12 13:09 | 55.55474 | 36.28880 | 3278 ft | 202 kts | 210° |
| 2026-04-12 13:10 | 55.54094 | 36.28043 | 3544 ft | 220 kts | 185° |
| 2026-04-12 13:10 | 55.52543 | 36.28317 | 3895 ft | 234 kts | 161° |
| 2026-04-12 13:10 | 55.51059 | 36.29745 | 4194 ft | 251 kts | 140° |
| 2026-04-12 13:10 | 55.49883 | 36.32171 | 4350 ft | 273 kts | 120° |
| 2026-04-12 13:11 | 55.49188 | 36.35375 | 4573 ft | 290 kts | 101° |
| 2026-04-12 13:11 | 55.49088 | 36.39002 | 4746 ft | 307 kts | 83° |
| 2026-04-12 13:11 | 55.49643 | 36.42730 | 4963 ft | 319 kts | 66° |
| 2026-04-12 13:11 | 55.50801 | 36.46070 | 5209 ft | 328 kts | 50° |
| 2026-04-12 13:12 | 55.52504 | 36.48997 | 4607 ft | 360 kts | 38° |
| 2026-04-12 13:12 | 55.54531 | 36.51392 | 4302 ft | 331 kts | 26° |
| 2026-04-12 13:12 | 55.56546 | 36.52557 | 4645 ft | 288 kts | 7° |
| 2026-04-12 13:12 | 55.58424 | 36.52496 | 4905 ft | 255 kts | 347° |
| 2026-04-12 13:13 | 55.59966 | 36.51411 | 5036 ft | 228 kts | 325° |
| 2026-04-12 13:13 | 55.61074 | 36.49526 | 4801 ft | 222 kts | 302° |
| 2026-04-12 13:13 | 55.61671 | 36.47000 | 4362 ft | 224 kts | 278° |
| 2026-04-12 13:13 | 55.61636 | 36.44265 | 3937 ft | 225 kts | 255° |
| 2026-04-12 13:14 | 55.60974 | 36.41792 | 3586 ft | 223 kts | 231° |
| 2026-04-12 13:14 | 55.59815 | 36.40037 | 3244 ft | 221 kts | 207° |
| 2026-04-12 13:14 | 55.58370 | 36.39287 | 2902 ft | 219 kts | 182° |
| 2026-04-12 13:14 | 55.56879 | 36.39655 | 2558 ft | 218 kts | 158° |
| 2026-04-12 13:15 | 55.55605 | 36.41083 | 2213 ft | 218 kts | 136° |
| 2026-04-12 13:15 | 55.54668 | 36.43142 | 1975 ft | 212 kts | 116° |
| 2026-04-12 13:15 | 55.54340 | 36.45545 | 1968 ft | 194 kts | 87° |
| 2026-04-12 13:15 | 55.54657 | 36.47681 | 2110 ft | 174 kts | 64° |
| 2026-04-12 13:16 | 55.55360 | 36.49436 | 2068 ft | 187 kts | 42° |
| 2026-04-12 13:16 | 55.56451 | 36.51216 | 2049 ft | 241 kts | 43° |
| 2026-04-12 13:16 | 55.57785 | 36.53490 | 2072 ft | 292 kts | 44° |
| 2026-04-12 13:16 | 55.59343 | 36.56158 | 2187 ft | 331 kts | 44° |
| 2026-04-12 13:17 | 55.61077 | 36.59140 | 2346 ft | 359 kts | 44° |
| 2026-04-12 13:17 | 55.62894 | 36.62275 | 2514 ft | 365 kts | 44° |
| 2026-04-12 13:17 | 55.64662 | 36.65329 | 2554 ft | 349 kts | 44° |
| 2026-04-12 13:17 | 55.66344 | 36.68235 | 2457 ft | 319 kts | 45° |
| 2026-04-12 13:18 | 55.67855 | 36.70844 | 2291 ft | 294 kts | 44° |
| 2026-04-12 13:18 | 55.69264 | 36.73307 | 2094 ft | 275 kts | 48° |
| 2026-04-12 13:18 | 55.70259 | 36.78621 | 2642 ft | 204 kts | 113° |
| 2026-04-12 13:19 | 55.69127 | 36.79773 | 1984 ft | 211 kts | 197° |
| 2026-04-12 13:19 | 55.67985 | 36.78475 | 2154 ft | 181 kts | 224° |
| 2026-04-12 13:19 | 55.67103 | 36.76947 | 1844 ft | 186 kts | 224° |
| 2026-04-12 13:19 | 55.66137 | 36.75309 | 1939 ft | 192 kts | 224° |
| 2026-04-12 13:20 | 55.65206 | 36.73637 | 1858 ft | 185 kts | 226° |
| 2026-04-12 13:20 | 55.64370 | 36.71991 | 1628 ft | 178 kts | 231° |
| 2026-04-12 13:20 | 55.63601 | 36.70203 | 1324 ft | 191 kts | 235° |
| 2026-04-12 13:20 | 55.62825 | 36.68256 | 1066 ft | 190 kts | 232° |
| 2026-04-12 13:21 | 55.61986 | 36.66542 | 683 ft | 177 kts | 227° |
| 2026-04-12 13:21 | 55.61246 | 36.65009 | 620 ft | 145 kts | 230° |
| 2026-04-12 13:21 | 55.60834 | 36.64087 | 620 ft | 47 kts | 237° |
| 2026-04-12 13:21 | 55.60775 | 36.63784 | 620 ft | 29 kts | 342° |
| 2026-04-12 13:22 | 55.60952 | 36.63672 | 620 ft | 26 kts | 2° |
| 2026-04-12 13:22 | 55.61065 | 36.63813 | 620 ft | 15 kts | 346° |